Mountain Home Village, California
Current Conditions -  °F | °C
As of 2:50 PM on Wednesday 22 Oct 2014 (Local Time) from KSBD Reporting Station
Broken Clouds Broken Clouds  
Wind Chill: 90°   Ceiling: 20000
Heat Index: 90°   Visibility: 10mi
Dew Point: 25°   Wind: 6mph
Humidity: 10%   Direction: 240°WSW
Pressure: 29.89"   Gusts: NA
Location:  34.1048°N, 117.051°W
Report Text: KSBD 222150Z 24005KT 10SM BKN200 32/M04 A2989
Loading
Personal Weather Stations






























Interactive Weather Map
Tropical Storm Tracking
New forecast layout! Learn more

10-Day Weather Forecast

Advertisements
Track Severe Weather on mobile